Time;durP1;ratioP1;P1;durP2;ratioP2;P2;SDS_P1;SDS_P2;PMS_P1;PMS_P2;Temp;Humidity;BMP_temperature;BMP_pressure;BME280_temperature;BME280_humidity;BME280_pressure;Samples;Min_cycle;Max_cycle;Signal;HPM_P1;HPM_P2
2022/04/11 00:01:03;;;;;;;6.20;4.70;;;;;;;3.61;100.00;100870.00;5048889;28;20867;-60
2022/04/11 00:03:29;;;;;;;7.05;5.00;;;;;;;3.60;100.00;100871.75;5048893;28;20808;-60
2022/04/11 00:05:55;;;;;;;7.68;5.28;;;;;;;3.52;100.00;100854.53;5049247;28;20970;-60
2022/04/11 00:08:21;;;;;;;6.07;4.40;;;;;;;3.60;100.00;100863.09;5048543;28;20041;-60
2022/04/11 00:10:47;;;;;;;8.15;4.78;;;;;;;3.53;100.00;100851.06;5048332;28;20051;-60
2022/04/11 00:13:13;;;;;;;6.65;4.78;;;;;;;3.63;100.00;100856.97;5048344;28;20024;-60
2022/04/11 00:15:40;;;;;;;7.47;4.38;;;;;;;3.67;100.00;100837.88;5047999;28;20025;-60
2022/04/11 00:18:06;;;;;;;8.55;3.55;;;;;;;3.75;100.00;100842.06;5049284;28;20024;-60
2022/04/11 00:20:31;;;;;;;7.95;4.60;;;;;;;3.81;100.00;100844.59;5046146;28;20032;-60
2022/04/11 00:22:56;;;;;;;6.60;4.20;;;;;;;3.87;100.00;100844.47;5031400;28;20098;-60
2022/04/11 00:25:22;;;;;;;7.60;4.18;;;;;;;3.92;100.00;100847.84;5029352;28;20027;-60
2022/04/11 00:27:48;;;;;;;5.45;4.00;;;;;;;3.94;100.00;100840.91;5047595;28;20031;-60
2022/04/11 00:30:13;;;;;;;6.38;4.35;;;;;;;3.92;100.00;100827.06;5049396;28;20059;-60
2022/04/11 00:32:44;;;;;;;6.63;4.10;;;;;;;3.98;100.00;100832.19;5047521;28;20869;-60
2022/04/11 00:35:10;;;;;;;6.10;3.58;;;;;;;4.03;100.00;100830.34;5047435;28;20217;-60
2022/04/11 00:37:37;;;;;;;5.22;3.67;;;;;;;4.10;100.00;100821.56;5047687;28;20265;-60
2022/04/11 00:40:06;;;;;;;5.35;3.63;;;;;;;4.09;100.00;100812.03;5047728;28;20032;-60
2022/04/11 00:42:32;;;;;;;8.15;3.63;;;;;;;4.17;100.00;100826.66;5029225;28;20027;-60
2022/04/11 00:44:59;;;;;;;5.28;3.53;;;;;;;4.17;100.00;100819.72;5048656;28;20107;-60
2022/04/11 00:47:28;;;;;;;7.00;3.90;;;;;;;4.21;100.00;100812.72;5048133;28;20113;-60
2022/04/11 00:49:56;;;;;;;5.68;3.95;;;;;;;4.23;100.00;100816.13;5047316;28;20083;-60
2022/04/11 00:52:21;;;;;;;9.18;3.88;;;;;;;4.13;100.00;100800.72;5042719;28;20923;-60
2022/04/11 00:54:47;;;;;;;6.35;3.80;;;;;;;4.10;100.00;100792.09;5045755;28;20067;-60
2022/04/11 00:57:15;;;;;;;10.93;3.95;;;;;;;4.22;100.00;100815.31;5028953;28;20020;-60
2022/04/11 00:59:40;;;;;;;8.05;4.13;;;;;;;4.22;100.00;100814.44;5047701;28;20894;-60
2022/04/11 01:02:06;;;;;;;5.30;3.95;;;;;;;4.12;100.00;100804.19;5047918;28;20125;-60
2022/04/11 01:04:31;;;;;;;6.45;4.10;;;;;;;4.15;100.00;100810.22;5046979;28;20107;-60
2022/04/11 01:06:57;;;;;;;5.25;3.42;;;;;;;4.03;100.00;100788.75;5048574;28;20020;-60
2022/04/11 01:09:23;;;;;;;6.40;4.15;;;;;;;4.12;100.00;100809.38;5046195;28;20028;-60
2022/04/11 01:11:49;;;;;;;8.30;3.95;;;;;;;4.05;100.00;100796.53;5046762;28;20028;-59
2022/04/11 01:14:15;;;;;;;7.65;3.35;;;;;;;4.05;100.00;100797.41;5047344;28;20090;-60
2022/04/11 01:16:47;;;;;;;8.57;4.07;;;;;;;4.01;100.00;100795.72;5046084;28;20885;-60
2022/04/11 01:19:12;;;;;;;8.40;4.50;;;;;;;3.92;100.00;100790.66;5047820;28;20031;-60
2022/04/11 01:21:37;;;;;;;7.10;4.15;;;;;;;3.87;100.00;100787.31;5031026;28;20115;-60
2022/04/11 01:24:03;;;;;;;10.00;3.60;;;;;;;3.75;100.00;100784.06;5046564;28;20024;-60
2022/04/11 01:26:29;;;;;;;7.18;4.00;;;;;;;3.73;100.00;100794.47;5046668;28;20044;-60
2022/04/11 01:28:55;;;;;;;5.38;3.85;;;;;;;3.46;100.00;100758.53;5028680;28;20043;-60
2022/04/11 01:31:20;;;;;;;10.02;4.55;;;;;;;3.65;100.00;100796.31;5044789;28;20028;-59
2022/04/11 01:33:46;;;;;;;8.23;4.63;;;;;;;3.61;100.00;100799.88;5046829;28;20853;-60
2022/04/11 01:36:11;;;;;;;6.50;4.18;;;;;;;3.55;100.00;100799.94;5045526;28;20028;-60
2022/04/11 01:38:37;;;;;;;5.47;4.05;;;;;;;3.44;100.00;100786.28;5046660;28;20038;-60
2022/04/11 01:41:02;;;;;;;5.53;3.50;;;;;;;3.47;100.00;100799.22;5045377;28;20028;-60
2022/04/11 01:43:28;;;;;;;5.30;4.13;;;;;;;3.41;100.00;100796.72;5028056;28;20917;-60
2022/04/11 01:45:53;;;;;;;11.73;4.18;;;;;;;3.34;100.00;100779.50;5045632;28;20886;-60
2022/04/11 01:48:19;;;;;;;6.63;3.92;;;;;;;3.32;100.00;100795.09;5046145;28;20861;-60
2022/04/11 01:50:44;;;;;;;5.78;4.00;;;;;;;3.04;100.00;100750.47;5045584;28;20062;-59
2022/04/11 01:53:12;;;;;;;7.40;4.22;;;;;;;3.16;100.00;100775.41;5045699;28;20028;-60
2022/04/11 01:55:38;;;;;;;7.57;4.10;;;;;;;3.20;100.00;100794.41;5046657;28;20082;-59
2022/04/11 01:58:05;;;;;;;7.30;3.80;;;;;;;3.15;100.00;100796.19;5045438;28;20937;-60
2022/04/11 02:00:31;;;;;;;7.20;4.22;;;;;;;3.11;100.00;100797.97;5045449;28;20019;-60
2022/04/11 02:02:58;;;;;;;8.45;3.90;;;;;;;3.00;100.00;100785.16;5045941;28;20130;-60
2022/04/11 02:05:23;;;;;;;5.25;3.95;;;;;;;2.78;100.00;100744.78;5045523;28;20081;-60
2022/04/11 02:07:49;;;;;;;8.07;4.50;;;;;;;2.92;100.00;100779.19;5045668;28;20042;-60
2022/04/11 02:10:14;;;;;;;6.57;4.32;;;;;;;2.86;100.00;100784.47;5027420;28;20148;-60
2022/04/11 02:12:40;;;;;;;10.07;3.88;;;;;;;2.73;100.00;100763.91;5045578;28;20028;-59
2022/04/11 02:15:09;;;;;;;5.72;4.47;;;;;;;2.79;100.00;100780.25;5044971;28;20137;-59
2022/04/11 02:17:35;;;;;;;9.75;4.50;;;;;;;2.68;100.00;100766.53;5045506;28;20074;-59
2022/04/11 02:20:00;;;;;;;7.05;4.57;;;;;;;2.68;100.00;100773.44;5045577;28;20908;-60
2022/04/11 02:22:26;;;;;;;6.05;4.22;;;;;;;2.66;100.00;100778.69;5044995;28;20043;-59
2022/04/11 02:24:51;;;;;;;7.72;4.40;;;;;;;2.60;100.00;100772.72;5045190;28;20043;-60
2022/04/11 02:27:16;;;;;;;7.00;4.55;;;;;;;2.51;100.00;100769.34;5045089;28;20861;-59
2022/04/11 02:29:43;;;;;;;7.03;4.28;;;;;;;2.48;100.00;100769.38;5045116;28;20217;-59
2022/04/11 02:32:09;;;;;;;5.55;4.28;;;;;;;2.48;100.00;100773.69;5046546;28;20034;-60
2022/04/11 02:34:34;;;;;;;7.45;4.55;;;;;;;2.43;100.00;100778.09;5045801;28;20028;-60
2022/04/11 02:36:59;;;;;;;5.93;4.43;;;;;;;2.34;100.00;100780.75;5045397;28;20024;-59
2022/04/11 02:39:25;;;;;;;5.57;4.63;;;;;;;2.31;100.00;100785.97;5045202;28;20035;-60
2022/04/11 02:41:50;;;;;;;6.30;4.45;;;;;;;2.20;100.00;100767.94;5045450;28;20036;-59
2022/04/11 02:44:16;;;;;;;7.32;4.55;;;;;;;2.21;100.00;100780.03;5044128;28;20790;-59
2022/04/11 02:46:44;;;;;;;5.45;4.15;;;;;;;2.12;100.00;100776.69;5045672;28;20025;-59
2022/04/11 02:49:09;;;;;;;7.63;4.68;;;;;;;2.03;100.00;100773.28;5044684;28;20139;-60
2022/04/11 02:51:35;;;;;;;6.00;4.57;;;;;;;1.83;100.00;100741.53;5027323;28;20895;-59
2022/04/11 02:54:07;;;;;;;10.50;5.45;;;;;;;1.96;100.00;100776.81;5046363;28;20084;-59
2022/04/11 02:56:35;;;;;;;9.60;5.10;;;;;;;1.90;100.00;100773.41;5045607;28;20028;-59
2022/04/11 02:59:01;;;;;;;6.85;5.05;;;;;;;1.69;100.00;100748.56;5045012;28;20245;-60
2022/04/11 03:01:27;;;;;;;6.75;4.60;;;;;;;1.78;100.00;100774.41;5046834;28;21074;-60
2022/04/11 03:03:52;;;;;;;7.20;4.82;;;;;;;1.74;100.00;100767.53;5045112;28;20939;-60
2022/04/11 03:06:17;;;;;;;7.97;4.65;;;;;;;1.53;100.00;100745.25;5045900;28;20127;-60
2022/04/11 03:08:43;;;;;;;7.07;4.95;;;;;;;1.51;100.00;100752.19;5046038;28;20036;-59
2022/04/11 03:11:08;;;;;;;9.65;5.53;;;;;;;1.60;100.00;100766.78;5047881;28;20028;-60
2022/04/11 03:13:34;;;;;;;7.10;5.35;;;;;;;1.39;100.00;100751.41;5050963;28;20946;-59
2022/04/11 03:15:59;;;;;;;7.88;5.43;;;;;;;1.45;100.00;100769.50;5050138;28;20035;-59
2022/04/11 03:18:25;;;;;;;7.07;5.20;;;;;;;1.36;100.00;100760.03;5048995;28;20106;-60
2022/04/11 03:20:50;;;;;;;6.30;4.80;;;;;;;1.09;100.00;100710.19;5048706;28;20090;-59
2022/04/11 03:23:16;;;;;;;7.85;5.32;;;;;;;1.36;100.00;100785.06;5048721;28;20032;-60
2022/04/11 03:25:41;;;;;;;8.93;5.80;;;;;;;1.33;100.00;100773.00;5048619;28;20086;-59
2022/04/11 03:28:07;;;;;;;7.07;5.20;;;;;;;1.24;100.00;100765.31;5049152;28;20046;-60
2022/04/11 03:30:32;;;;;;;9.40;5.80;;;;;;;1.24;100.00;100777.41;5050152;28;20032;-60
2022/04/11 03:32:58;;;;;;;7.18;5.80;;;;;;;1.19;100.00;100772.25;5049783;28;20028;-60
2022/04/11 03:35:23;;;;;;;9.05;6.30;;;;;;;1.07;100.00;100753.34;5048287;28;20926;-60
2022/04/11 03:37:49;;;;;;;9.55;5.20;;;;;;;1.14;100.00;100770.56;5048466;28;20912;-60
2022/04/11 03:40:14;;;;;;;11.93;6.60;;;;;;;1.00;100.00;100750.81;5048581;28;20343;-60
2022/04/11 03:42:40;;;;;;;8.73;5.47;;;;;;;1.06;100.00;100769.72;5050066;28;20901;-60
2022/04/11 03:45:08;;;;;;;7.45;5.68;;;;;;;0.89;100.00;100747.41;5048056;28;20036;-60
2022/04/11 03:47:33;;;;;;;9.10;5.93;;;;;;;0.96;100.00;100767.22;5048352;28;20269;-60
2022/04/11 03:49:59;;;;;;;11.10;6.07;;;;;;;0.63;100.00;100710.50;5048009;28;20905;-60
2022/04/11 03:52:25;;;;;;;6.72;4.90;;;;;;;0.79;100.00;100735.41;5048108;28;20057;-60
2022/04/11 03:54:50;;;;;;;8.18;6.15;;;;;;;0.91;100.00;100761.19;5047859;28;20037;-60
2022/04/11 03:57:16;;;;;;;9.25;5.60;;;;;;;0.91;100.00;100760.34;5048223;28;20129;-60
2022/04/11 03:59:41;;;;;;;8.30;5.03;;;;;;;0.53;100.00;100698.47;5047978;28;20175;-60
2022/04/11 04:02:06;;;;;;;7.25;5.38;;;;;;;0.85;100.00;100761.22;5049647;28;20805;-60
2022/04/11 04:04:32;;;;;;;6.95;5.50;;;;;;;0.78;100.00;100749.19;5029981;28;20039;-60
2022/04/11 04:06:57;;;;;;;6.60;5.28;;;;;;;0.75;100.00;100749.19;5031614;28;20031;-61
2022/04/11 04:09:22;;;;;;;7.45;5.40;;;;;;;0.78;100.00;100756.94;5048395;28;20036;-60
2022/04/11 04:11:48;;;;;;;8.65;4.97;;;;;;;0.68;100.00;100747.50;5049305;28;20138;-60
2022/04/11 04:14:13;;;;;;;7.47;5.40;;;;;;;0.66;100.00;100748.38;5048047;28;20042;-60
2022/04/11 04:16:38;;;;;;;8.80;5.18;;;;;;;0.65;100.00;100752.69;5048223;28;20932;-60
2022/04/11 04:19:04;;;;;;;9.07;5.45;;;;;;;0.44;100.00;100726.97;5047323;28;20059;-60
2022/04/11 04:21:29;;;;;;;7.10;5.65;;;;;;;0.56;100.00;100749.28;5046993;28;20059;-60
2022/04/11 04:23:54;;;;;;;9.90;5.78;;;;;;;0.56;100.00;100750.16;5049165;28;20028;-60
2022/04/11 04:26:20;;;;;;;10.25;5.60;;;;;;;0.55;100.00;100756.19;5046632;28;20153;-60
2022/04/11 04:28:45;;;;;;;13.63;6.30;;;;;;;0.55;100.00;100761.34;5048106;28;20039;-59
2022/04/11 04:31:11;;;;;;;9.77;6.57;;;;;;;0.52;100.00;100756.19;5047046;28;20889;-59
2022/04/11 04:33:36;;;;;;;10.57;5.88;;;;;;;0.53;100.00;100757.94;5029141;28;20028;-59
2022/04/11 04:36:01;;;;;;;6.93;5.68;;;;;;;0.52;100.00;100756.19;5046432;28;20226;-59
2022/04/11 04:38:27;;;;;;;10.98;5.55;;;;;;;0.45;100.00;100749.34;5046905;28;20027;-59
2022/04/11 04:40:52;;;;;;;9.52;6.38;;;;;;;0.42;100.00;100741.59;5048725;28;20123;-59
2022/04/11 04:43:17;;;;;;;8.90;5.97;;;;;;;0.46;100.00;100751.94;5046719;28;20031;-60
2022/04/11 04:45:43;;;;;;;9.70;5.93;;;;;;;0.45;100.00;100752.78;5046102;28;20085;-59
2022/04/11 04:48:09;;;;;;;8.00;6.05;;;;;;;0.40;100.00;100740.75;5046569;28;20128;-60
2022/04/11 04:50:34;;;;;;;7.15;5.45;;;;;;;0.44;100.00;100751.06;5046367;28;20020;-59
2022/04/11 04:52:59;;;;;;;9.50;6.35;;;;;;;0.00;100.00;100678.84;5046192;28;20298;-59
2022/04/11 04:55:25;;;;;;;7.80;6.10;;;;;;;0.46;100.00;100756.22;5045856;28;20033;-59
2022/04/11 04:57:51;;;;;;;7.88;5.63;;;;;;;0.46;100.00;100756.22;5047670;28;20024;-60
2022/04/11 05:00:16;;;;;;;11.25;6.70;;;;;;;0.46;100.00;100751.06;5046268;28;20028;-59
2022/04/11 05:02:43;;;;;;;7.85;5.45;;;;;;;0.47;100.00;100755.38;5047596;28;20027;-60
2022/04/11 05:05:10;;;;;;;10.32;5.93;;;;;;;0.48;100.00;100757.06;5047378;28;20031;-59
2022/04/11 05:07:36;;;;;;;9.82;5.93;;;;;;;0.50;100.00;100763.97;5047593;28;20040;-59
2022/04/11 05:10:04;;;;;;;7.57;5.93;;;;;;;0.54;100.00;100754.50;5048411;28;20083;-60
2022/04/11 05:12:30;;;;;;;8.05;5.53;;;;;;;0.56;100.00;100745.00;5047130;28;20890;-59
2022/04/11 05:14:55;;;;;;;9.05;5.72;;;;;;;0.59;100.00;100742.38;5028423;28;20100;-59
2022/04/11 05:17:22;;;;;;;8.63;5.80;;;;;;;0.52;100.00;100727.78;5030530;28;20032;-59
2022/04/11 05:19:48;;;;;;;9.18;6.05;;;;;;;0.64;100.00;100738.06;5048441;28;20031;-60
2022/04/11 05:22:13;;;;;;;9.48;6.63;;;;;;;0.59;100.00;100716.53;5045602;28;20024;-60
2022/04/11 05:24:38;;;;;;;8.32;6.18;;;;;;;0.72;100.00;100733.72;5027787;28;20028;-59
2022/04/11 05:27:04;;;;;;;9.27;6.22;;;;;;;0.81;100.00;100738.00;5045446;28;20036;-59
2022/04/11 05:29:29;;;;;;;11.48;6.47;;;;;;;0.86;100.00;100737.09;5046037;28;20828;-59
2022/04/11 05:31:55;;;;;;;9.10;7.00;;;;;;;0.88;100.00;100724.16;5046073;28;20039;-60
2022/04/11 05:34:20;;;;;;;8.48;6.85;;;;;;;1.02;100.00;100736.13;5045714;28;20074;-60
2022/04/11 05:36:45;;;;;;;9.52;6.43;;;;;;;0.93;100.00;100702.56;5045665;28;20024;-59
2022/04/11 05:39:11;;;;;;;10.52;6.78;;;;;;;1.19;100.00;100730.84;5045129;28;20028;-59
2022/04/11 05:41:36;;;;;;;8.82;7.18;;;;;;;1.30;100.00;100728.19;5046603;28;20089;-59
2022/04/11 05:44:02;;;;;;;9.45;7.00;;;;;;;1.26;100.00;100706.63;5045800;28;20797;-60
2022/04/11 05:46:27;;;;;;;9.27;6.88;;;;;;;1.53;100.00;100726.25;5045568;28;20030;-59
2022/04/11 05:48:53;;;;;;;9.27;6.97;;;;;;;1.57;100.00;100717.59;5045610;28;20865;-59
2022/04/11 05:51:18;;;;;;;7.93;6.43;;;;;;;1.78;100.00;100735.56;5045211;28;20031;-59
2022/04/11 05:53:43;;;;;;;8.13;6.20;;;;;;;1.90;100.00;100732.84;5045528;28;20034;-60
2022/04/11 05:56:09;;;;;;;10.73;7.47;;;;;;;2.03;100.00;100734.41;5045304;28;20830;-60
2022/04/11 05:58:34;;;;;;;10.02;6.78;;;;;;;2.15;100.00;100738.63;5045302;28;20035;-61
2022/04/11 06:00:59;;;;;;;20.42;7.70;;;;;;;2.16;100.00;100704.06;5046532;28;20098;-59
2022/04/11 06:03:25;;;;;;;13.02;7.35;;;;;;;2.51;100.00;100737.34;5045044;28;20862;-60
2022/04/11 06:05:50;;;;;;;10.82;7.32;;;;;;;2.65;100.00;100725.06;5043648;28;21815;-59
2022/04/11 06:08:16;;;;;;;9.75;6.78;;;;;;;2.83;100.00;100727.44;5025117;28;20025;-60
2022/04/11 06:10:43;;;;;;;11.25;6.85;;;;;;;3.01;100.00;100724.56;5025075;28;20036;-59
2022/04/11 06:13:09;;;;;;;9.63;6.32;;;;;;;3.18;100.00;100723.50;5026819;28;20025;-60
2022/04/11 06:15:34;;;;;;;10.50;5.68;;;;;;;3.37;100.00;100725.78;5026049;28;20071;-60
2022/04/11 06:17:59;;;;;;;9.48;5.05;;;;;;;3.56;100.00;100731.53;5020681;28;20046;-60
2022/04/11 06:20:25;;;;;;;9.02;5.57;;;;;;;3.71;100.00;100722.63;5045532;28;20027;-59
2022/04/11 06:22:50;;;;;;;9.63;6.22;;;;;;;3.86;100.00;100723.19;5045954;28;20028;-59
2022/04/11 06:25:16;;;;;;;7.15;5.15;;;;;;;3.91;100.00;100707.53;5045111;28;20027;-60
2022/04/11 06:27:41;;;;;;;7.88;5.15;;;;;;;4.19;100.00;100726.91;5045275;28;20147;-59
2022/04/11 06:30:07;;;;;;;9.13;4.10;;;;;;;4.34;100.00;100723.19;5045581;28;20047;-60
2022/04/11 06:32:33;;;;;;;5.15;4.07;;;;;;;4.47;100.00;100727.25;5045509;28;20028;-59
2022/04/11 06:34:59;;;;;;;10.43;4.22;;;;;;;4.56;100.00;100725.31;5046280;28;20883;-59
2022/04/11 06:37:25;;;;;;;6.55;3.60;;;;;;;4.69;100.00;100728.53;5044660;28;20024;-60
2022/04/11 06:39:51;;;;;;;6.78;3.95;;;;;;;4.78;100.00;100728.34;5040876;28;20135;-60
2022/04/11 06:42:17;;;;;;;5.47;3.33;;;;;;;4.89;100.00;100736.78;5045427;28;20142;-59
2022/04/11 06:44:42;;;;;;;5.15;3.33;;;;;;;4.95;100.00;100726.22;5027227;28;20028;-59
2022/04/11 06:47:08;;;;;;;7.22;4.20;;;;;;;4.95;100.00;100715.81;5050464;28;20031;-60
2022/04/11 06:49:35;;;;;;;6.00;3.25;;;;;;;4.91;100.00;100708.09;5048969;28;20027;-60
2022/04/11 06:52:00;;;;;;;5.10;2.55;;;;;;;4.83;100.00;100669.25;5050141;28;20028;-60
2022/04/11 06:54:26;;;;;;;7.03;3.17;;;;;;;5.30;100.00;100737.59;5048859;28;20035;-60
2022/04/11 06:56:51;;;;;;;6.78;3.03;;;;;;;5.26;100.00;100715.97;5048615;28;20090;-60
2022/04/11 06:59:16;;;;;;;4.32;2.92;;;;;;;5.43;100.00;100728.59;5049000;28;20020;-60
2022/04/11 07:01:42;;;;;;;3.42;2.40;;;;;;;5.56;100.00;100741.31;5048706;28;20970;-60
2022/04/11 07:04:08;;;;;;;7.32;2.90;;;;;;;5.66;100.00;100736.72;5048962;28;20024;-60
2022/04/11 07:06:34;;;;;;;3.90;2.83;;;;;;;5.68;100.00;100724.47;5047748;28;20024;-60
2022/04/11 07:08:59;;;;;;;8.52;2.85;;;;;;;5.87;100.00;100736.22;5048318;28;20056;-60
2022/04/11 07:11:24;;;;;;;7.15;2.90;;;;;;;5.98;100.00;100731.56;5048680;28;20028;-59
2022/04/11 07:13:50;;;;;;;6.10;2.80;;;;;;;6.05;100.00;100722.69;5049945;28;20055;-60
2022/04/11 07:16:15;;;;;;;7.88;3.00;;;;;;;6.21;100.00;100735.31;5049183;28;20863;-60
2022/04/11 07:18:40;;;;;;;3.85;2.13;;;;;;;6.30;100.00;100724.63;5050253;28;20028;-60
2022/04/11 07:21:06;;;;;;;6.53;2.95;;;;;;;6.30;100.00;100706.38;5036234;28;20853;-60
2022/04/11 07:23:31;;;;;;;12.20;2.78;;;;;;;6.40;100.00;100707.81;5030332;28;20038;-60
2022/04/11 07:25:57;;;;;;;5.72;3.10;;;;;;;6.47;100.00;100691.09;5029152;28;20021;-60
2022/04/11 07:28:22;;;;;;;5.35;3.00;;;;;;;6.75;100.00;100710.28;5029041;28;20048;-60
2022/04/11 07:30:47;;;;;;;6.47;2.55;;;;;;;6.87;100.00;100707.28;5028571;28;20058;-60
2022/04/11 07:33:13;;;;;;;4.70;2.58;;;;;;;6.99;100.00;100704.31;5029188;28;20913;-59
2022/04/11 07:35:38;;;;;;;11.10;2.38;;;;;;;7.11;100.00;100696.09;5028918;28;20020;-59
2022/04/11 07:38:04;;;;;;;6.00;3.13;;;;;;;7.30;100.00;100698.13;5030615;28;20032;-60
2022/04/11 07:40:29;;;;;;;6.82;2.75;;;;;;;7.49;100.00;100696.63;5050177;28;20024;-59
2022/04/11 07:42:55;;;;;;;7.18;3.45;;;;;;;7.66;100.00;100699.53;5048391;28;20062;-59
2022/04/11 07:45:20;;;;;;;9.88;3.75;;;;;;;7.86;100.00;100704.09;5048431;28;20126;-60
2022/04/11 07:47:46;;;;;;;4.10;2.75;;;;;;;7.53;100.00;100620.66;5048904;28;20028;-59
2022/04/11 07:50:12;;;;;;;6.97;3.00;;;;;;;8.00;100.00;100673.94;5048588;28;20032;-59
2022/04/11 07:52:42;;;;;;;4.55;2.60;;;;;;;8.32;100.00;100690.28;5049475;28;20094;-59
2022/04/11 07:55:09;;;;;;;13.30;2.90;;;;;;;8.32;100.00;100685.91;5052258;28;20024;-61
2022/04/11 07:57:34;;;;;;;6.18;3.20;;;;;;;8.42;100.00;100696.88;5031086;28;20271;-59
2022/04/11 08:00:00;;;;;;;5.68;2.83;;;;;;;8.47;100.00;100697.59;5049856;28;20845;-59
2022/04/11 08:02:26;;;;;;;10.93;3.25;;;;;;;8.53;100.00;100687.72;5050881;28;20032;-59
2022/04/11 08:04:52;;;;;;;6.03;2.75;;;;;;;8.39;100.00;100642.00;5049701;28;20154;-59
2022/04/11 08:07:18;;;;;;;6.75;2.45;;;;;;;8.68;100.00;100678.47;5049845;28;20020;-59
2022/04/11 08:09:43;;;;;;;5.65;2.80;;;;;;;8.65;100.00;100661.06;5050199;28;20028;-59
2022/04/11 08:12:09;;;;;;;4.38;2.53;;;;;;;8.85;100.00;100691.78;5049583;28;20042;-59
2022/04/11 08:14:34;;;;;;;4.72;2.95;;;;;;;8.90;100.00;100679.34;5049311;28;20877;-59
2022/04/11 08:17:03;;;;;;;9.35;2.78;;;;;;;8.99;100.00;100684.19;5049195;28;20089;-59
2022/04/11 08:19:29;;;;;;;4.85;2.53;;;;;;;9.00;100.00;100680.69;5051484;28;20043;-59
2022/04/11 08:21:55;;;;;;;5.25;2.97;;;;;;;8.99;100.00;100665.84;5049648;28;20034;-60
2022/04/11 08:24:20;;;;;;;5.68;2.95;;;;;;;9.07;100.00;100661.19;5049664;28;20135;-59
2022/04/11 08:26:46;;;;;;;8.52;3.08;;;;;;;9.13;100.00;100647.81;5049172;28;20040;-59
2022/04/11 08:29:11;;;;;;;5.07;2.88;;;;;;;9.15;100.00;100627.66;5049228;28;20119;-59
2022/04/11 08:31:37;;;;;;;5.80;3.50;;;;;;;9.14;100.00;100604.97;5049231;28;20024;-59
2022/04/11 08:34:03;;;;;;;5.68;3.03;;;;;;;9.54;100.00;100645.28;5048879;28;20039;-59
2022/04/11 08:36:28;;;;;;;6.65;3.60;;;;;;;9.75;100.00;100652.25;5048685;28;20135;-59
2022/04/11 08:38:53;;;;;;;5.95;3.50;;;;;;;9.88;100.00;100629.78;5029920;28;20081;-59
2022/04/11 08:41:19;;;;;;;7.07;3.88;;;;;;;10.20;100.00;100657.31;5048705;28;20030;-59
2022/04/11 08:43:45;;;;;;;6.68;3.38;;;;;;;10.14;100.00;100653.16;5048071;28;20028;-60
2022/04/11 08:46:13;;;;;;;4.38;2.83;;;;;;;10.21;100.00;100651.97;5015356;28;20032;-59
2022/04/11 08:48:39;;;;;;;5.30;2.83;;;;;;;10.30;100.00;100660.38;5030214;28;20916;-59
2022/04/11 08:51:04;;;;;;;4.35;2.72;;;;;;;10.20;100.00;100646.81;5049680;28;20135;-59
2022/04/11 08:53:30;;;;;;;5.10;2.45;;;;;;;10.23;100.00;100665.91;5049120;28;20043;-60
2022/04/11 08:55:56;;;;;;;6.38;3.42;;;;;;;10.25;100.00;100656.16;5048967;28;20035;-59
2022/04/11 08:58:21;;;;;;;5.82;3.10;;;;;;;10.27;100.00;100653.50;5048446;28;20059;-59
2022/04/11 09:00:46;;;;;;;6.15;2.92;;;;;;;10.35;98.08;100655.75;5050705;28;20870;-59
2022/04/11 09:03:12;;;;;;;5.95;3.35;;;;;;;10.42;100.00;100651.91;5049342;28;20085;-60
2022/04/11 09:05:37;;;;;;;6.45;3.78;;;;;;;10.55;100.00;100650.44;5049873;28;20084;-59
2022/04/11 09:08:03;;;;;;;14.30;3.83;;;;;;;10.66;100.00;100653.44;5051127;28;20939;-60
2022/04/11 09:10:38;;;;;;;7.07;3.65;;;;;;;10.77;100.00;100653.78;5052795;28;20036;-60
2022/04/11 09:13:07;;;;;;;8.23;3.60;;;;;;;10.92;100.00;100650.44;5056564;28;20032;-59
2022/04/11 09:15:43;;;;;;;5.22;3.10;;;;;;;10.96;100.00;100623.06;5058213;28;20060;-59
2022/04/11 09:18:09;;;;;;;5.93;2.75;;;;;;;11.23;96.92;100642.78;5060468;28;20020;-59
2022/04/11 09:20:35;;;;;;;5.90;3.28;;;;;;;11.23;97.37;100621.72;5048397;28;20027;-59
2022/04/11 09:23:00;;;;;;;7.38;4.15;;;;;;;11.27;92.76;100625.91;5062781;28;20078;-59
2022/04/11 09:25:31;;;;;;;6.88;3.95;;;;;;;11.17;97.10;100602.78;5072859;28;20027;-59
2022/04/11 09:28:07;;;;;;;5.07;3.42;;;;;;;11.20;100.00;100610.50;5066601;28;20039;-59
2022/04/11 09:30:33;;;;;;;10.05;3.47;;;;;;;11.26;100.00;100621.56;5065309;28;20811;-59
2022/04/11 09:33:04;;;;;;;7.65;3.58;;;;;;;11.28;96.99;100616.25;5070542;28;20044;-60
2022/04/11 09:35:33;;;;;;;4.97;3.42;;;;;;;11.33;95.78;100610.75;5069320;28;20033;-60
2022/04/11 09:38:15;;;;;;;7.93;3.75;;;;;;;11.34;96.62;100608.03;5069785;28;20076;-60
2022/04/11 09:40:50;;;;;;;6.82;3.80;;;;;;;11.30;95.31;100601.22;5081240;28;20834;-60
2022/04/11 09:43:17;;;;;;;7.30;3.70;;;;;;;11.40;94.14;100596.34;5086420;28;20043;-60
2022/04/11 09:45:47;;;;;;;5.85;3.53;;;;;;;11.51;93.31;100604.56;5090099;28;20523;-59
2022/04/11 09:48:21;;;;;;;7.30;3.72;;;;;;;11.50;96.32;100573.91;5090158;28;20876;-59
2022/04/11 09:50:47;;;;;;;7.45;3.58;;;;;;;11.71;92.78;100586.84;5086786;28;20550;-60
2022/04/11 09:53:24;;;;;;;10.30;3.97;;;;;;;11.88;91.85;100588.63;5082115;28;20143;-60
2022/04/11 09:55:52;;;;;;;4.97;3.33;;;;;;;11.98;89.39;100586.34;5089833;28;20364;-60
2022/04/11 09:58:19;;;;;;;5.32;3.08;;;;;;;12.13;87.60;100577.63;5071695;28;20829;-59
2022/04/11 10:00:45;;;;;;;4.60;3.20;;;;;;;12.30;88.62;100573.13;5086862;28;20024;-60
2022/04/11 10:03:11;;;;;;;6.63;2.33;;;;;;;12.34;86.71;100568.53;5086703;28;20146;-60
2022/04/11 10:05:38;;;;;;;6.45;2.58;;;;;;;12.25;85.94;100548.84;5086610;28;20020;-60
2022/04/11 10:08:06;;;;;;;8.02;3.38;;;;;;;12.47;88.64;100574.03;5084499;28;20138;-60
2022/04/11 10:10:34;;;;;;;7.72;3.60;;;;;;;12.47;84.80;100545.03;5082019;28;20039;-60
2022/04/11 10:13:00;;;;;;;6.15;3.28;;;;;;;12.47;81.94;100545.03;5082219;28;20024;-60
2022/04/11 10:15:25;;;;;;;5.78;2.90;;;;;;;12.66;84.67;100561.50;5067600;28;20039;-60
2022/04/11 10:17:52;;;;;;;5.13;2.45;;;;;;;12.73;82.59;100558.44;5058334;28;20936;-60
2022/04/11 10:20:27;;;;;;;6.03;2.70;;;;;;;12.85;82.01;100554.25;5071356;27;20034;-60
2022/04/11 10:23:09;;;;;;;5.50;2.75;;;;;;;13.01;80.21;100552.44;5049154;28;20020;-60
2022/04/11 10:25:44;;;;;;;6.80;2.95;;;;;;;13.31;80.41;100555.13;5012850;28;20032;-60
2022/04/11 10:28:17;;;;;;;10.05;2.47;;;;;;;13.16;78.48;100501.47;5027370;28;20059;-60
2022/04/11 10:30:44;;;;;;;4.72;2.75;;;;;;;13.67;79.92;100541.50;5028348;28;20231;-60
2022/04/11 10:33:10;;;;;;;4.80;2.53;;;;;;;13.58;77.41;100505.09;5026033;28;20028;-60
2022/04/11 10:35:43;;;;;;;7.35;2.88;;;;;;;13.80;76.06;100547.75;5024301;28;20938;-60
2022/04/11 10:38:11;;;;;;;7.97;2.40;;;;;;;13.76;77.22;100530.38;5026609;28;20098;-60
2022/04/11 10:40:47;;;;;;;4.07;2.47;;;;;;;13.94;76.86;100539.81;5026479;28;20055;-60
2022/04/11 10:43:13;;;;;;;4.78;2.53;;;;;;;13.92;75.01;100512.66;5026195;28;20037;-60
2022/04/11 10:45:58;;;;;;;4.38;2.10;;;;;;;14.18;74.26;100532.16;5025522;28;20031;-60
2022/04/11 10:48:42;;;;;;;;;;;;;;;14.32;74.72;100530.34;5026082;28;20130;-60
2022/04/11 10:51:15;;;;;;;6.78;2.33;;;;;;;14.46;72.31;100510.16;5031937;28;19966;-59
2022/04/11 10:54:21;;;;;;;4.82;2.67;;;;;;;14.50;74.47;100514.31;5038212;28;20028;-60
2022/04/11 10:56:50;;;;;;;;;;;;;;;14.63;71.47;100507.25;5008079;28;20114;-60
2022/04/11 10:59:24;;;;;;;6.82;2.50;;;;;;;14.63;72.10;100497.50;5025619;28;19924;-60
2022/04/11 11:01:54;;;;;;;7.05;2.40;;;;;;;14.79;71.90;100487.66;5016086;28;20798;-60
2022/04/11 11:04:21;;;;;;;4.72;2.50;;;;;;;15.09;72.03;100500.63;5044949;28;20032;-60
2022/04/11 11:06:47;;;;;;;5.13;2.08;;;;;;;15.15;67.69;100471.09;5043514;28;20040;-60
2022/04/11 11:09:16;;;;;;;3.47;2.13;;;;;;;15.48;70.27;100485.63;5045601;28;20082;-60
2022/04/11 11:11:42;;;;;;;8.95;2.20;;;;;;;15.56;68.92;100485.97;5048238;28;20028;-60
2022/04/11 11:14:41;;;;;;;7.85;2.58;;;;;;;15.53;68.01;100483.53;5066259;28;20138;-60
2022/04/11 11:17:07;;;;;;;3.92;2.33;;;;;;;15.51;68.62;100469.56;5067658;28;20132;-60
2022/04/11 11:20:02;;;;;;;4.00;2.10;;;;;;;15.70;64.42;100467.31;5072946;28;20027;-60
2022/04/11 11:22:31;;;;;;;6.10;2.17;;;;;;;15.99;64.25;100462.59;5092392;28;20130;-60